sensor_id;sensor_type;location;lat;lon;timestamp;P1;durP1;ratioP1;P2;durP2;ratioP2
34489;SDS011;20730;49.372;7.324;2023-07-29T00:00:34;5.30;;;3.60;;
34489;SDS011;20730;49.372;7.324;2023-07-29T00:03:01;5.68;;;3.67;;
34489;SDS011;20730;49.372;7.324;2023-07-29T00:05:28;5.63;;;4.10;;
34489;SDS011;20730;49.372;7.324;2023-07-29T00:07:54;8.20;;;3.63;;
34489;SDS011;20730;49.372;7.324;2023-07-29T00:10:21;4.80;;;3.47;;
34489;SDS011;20730;49.372;7.324;2023-07-29T00:12:48;8.60;;;3.25;;
34489;SDS011;20730;49.372;7.324;2023-07-29T00:15:14;6.07;;;3.13;;
34489;SDS011;20730;49.372;7.324;2023-07-29T00:17:41;4.38;;;3.20;;
34489;SDS011;20730;49.372;7.324;2023-07-29T00:20:08;4.97;;;3.13;;
34489;SDS011;20730;49.372;7.324;2023-07-29T00:22:35;3.40;;;3.10;;
34489;SDS011;20730;49.372;7.324;2023-07-29T00:25:01;4.03;;;3.03;;
34489;SDS011;20730;49.372;7.324;2023-07-29T00:27:28;3.85;;;2.90;;
34489;SDS011;20730;49.372;7.324;2023-07-29T00:29:55;3.08;;;2.80;;
34489;SDS011;20730;49.372;7.324;2023-07-29T00:32:21;3.70;;;2.50;;
34489;SDS011;20730;49.372;7.324;2023-07-29T00:34:48;2.83;;;2.55;;
34489;SDS011;20730;49.372;7.324;2023-07-29T00:37:15;6.15;;;2.95;;
34489;SDS011;20730;49.372;7.324;2023-07-29T00:39:44;5.90;;;2.55;;
34489;SDS011;20730;49.372;7.324;2023-07-29T00:42:11;5.00;;;2.60;;
34489;SDS011;20730;49.372;7.324;2023-07-29T00:44:38;3.22;;;2.50;;
34489;SDS011;20730;49.372;7.324;2023-07-29T00:47:04;4.72;;;2.75;;
34489;SDS011;20730;49.372;7.324;2023-07-29T00:49:32;3.50;;;2.53;;
34489;SDS011;20730;49.372;7.324;2023-07-29T00:51:59;4.95;;;2.75;;
34489;SDS011;20730;49.372;7.324;2023-07-29T00:54:25;4.20;;;2.30;;
34489;SDS011;20730;49.372;7.324;2023-07-29T00:56:52;2.95;;;2.42;;
34489;SDS011;20730;49.372;7.324;2023-07-29T00:59:19;5.15;;;2.33;;
34489;SDS011;20730;49.372;7.324;2023-07-29T01:01:45;2.65;;;2.05;;
34489;SDS011;20730;49.372;7.324;2023-07-29T01:04:12;4.38;;;2.28;;
34489;SDS011;20730;49.372;7.324;2023-07-29T01:12:55;2.38;;;2.17;;
34489;SDS011;20730;49.372;7.324;2023-07-29T01:15:34;5.10;;;2.30;;
34489;SDS011;20730;49.372;7.324;2023-07-29T01:18:05;5.82;;;2.40;;
34489;SDS011;20730;49.372;7.324;2023-07-29T01:20:37;3.38;;;2.63;;
34489;SDS011;20730;49.372;7.324;2023-07-29T01:23:05;2.88;;;2.15;;
34489;SDS011;20730;49.372;7.324;2023-07-29T01:25:34;3.27;;;2.40;;
34489;SDS011;20730;49.372;7.324;2023-07-29T01:28:01;2.58;;;2.38;;
34489;SDS011;20730;49.372;7.324;2023-07-29T01:30:33;4.63;;;2.70;;
34489;SDS011;20730;49.372;7.324;2023-07-29T01:33:06;3.60;;;2.60;;
34489;SDS011;20730;49.372;7.324;2023-07-29T01:35:42;3.80;;;2.35;;
34489;SDS011;20730;49.372;7.324;2023-07-29T01:38:13;5.50;;;2.20;;
34489;SDS011;20730;49.372;7.324;2023-07-29T01:40:44;2.95;;;2.40;;
34489;SDS011;20730;49.372;7.324;2023-07-29T01:43:11;5.50;;;2.20;;
34489;SDS011;20730;49.372;7.324;2023-07-29T01:45:38;2.50;;;2.28;;
34489;SDS011;20730;49.372;7.324;2023-07-29T01:48:06;3.80;;;2.70;;
34489;SDS011;20730;49.372;7.324;2023-07-29T01:50:34;5.53;;;2.40;;
34489;SDS011;20730;49.372;7.324;2023-07-29T01:53:01;3.63;;;2.30;;
34489;SDS011;20730;49.372;7.324;2023-07-29T01:55:28;4.35;;;2.50;;
34489;SDS011;20730;49.372;7.324;2023-07-29T01:57:55;4.13;;;2.58;;
34489;SDS011;20730;49.372;7.324;2023-07-29T02:00:23;5.22;;;2.40;;
34489;SDS011;20730;49.372;7.324;2023-07-29T02:02:49;3.72;;;2.42;;
34489;SDS011;20730;49.372;7.324;2023-07-29T02:05:16;5.85;;;2.35;;
34489;SDS011;20730;49.372;7.324;2023-07-29T02:07:43;3.55;;;2.40;;
34489;SDS011;20730;49.372;7.324;2023-07-29T02:10:10;5.43;;;2.28;;
34489;SDS011;20730;49.372;7.324;2023-07-29T02:12:38;4.30;;;2.55;;
34489;SDS011;20730;49.372;7.324;2023-07-29T02:15:05;5.65;;;2.55;;
34489;SDS011;20730;49.372;7.324;2023-07-29T02:17:32;2.83;;;2.30;;
34489;SDS011;20730;49.372;7.324;2023-07-29T02:19:59;2.63;;;2.35;;
34489;SDS011;20730;49.372;7.324;2023-07-29T02:22:25;3.00;;;2.60;;
34489;SDS011;20730;49.372;7.324;2023-07-29T02:24:52;4.25;;;2.38;;
34489;SDS011;20730;49.372;7.324;2023-07-29T02:27:19;2.67;;;2.47;;
34489;SDS011;20730;49.372;7.324;2023-07-29T02:29:46;4.05;;;2.58;;
34489;SDS011;20730;49.372;7.324;2023-07-29T02:32:13;7.32;;;2.72;;
34489;SDS011;20730;49.372;7.324;2023-07-29T02:34:40;4.35;;;2.97;;
34489;SDS011;20730;49.372;7.324;2023-07-29T02:37:06;4.22;;;2.97;;
34489;SDS011;20730;49.372;7.324;2023-07-29T02:39:33;5.75;;;3.10;;
34489;SDS011;20730;49.372;7.324;2023-07-29T02:42:00;5.13;;;3.30;;
34489;SDS011;20730;49.372;7.324;2023-07-29T02:44:27;3.38;;;2.88;;
34489;SDS011;20730;49.372;7.324;2023-07-29T02:46:54;3.17;;;2.90;;
34489;SDS011;20730;49.372;7.324;2023-07-29T02:49:22;3.05;;;2.85;;
34489;SDS011;20730;49.372;7.324;2023-07-29T02:51:50;3.92;;;2.80;;
34489;SDS011;20730;49.372;7.324;2023-07-29T02:54:17;3.42;;;3.00;;
34489;SDS011;20730;49.372;7.324;2023-07-29T02:56:43;4.63;;;3.10;;
34489;SDS011;20730;49.372;7.324;2023-07-29T02:59:10;7.90;;;3.15;;
34489;SDS011;20730;49.372;7.324;2023-07-29T03:01:37;6.07;;;3.17;;
34489;SDS011;20730;49.372;7.324;2023-07-29T03:04:04;3.88;;;3.03;;
34489;SDS011;20730;49.372;7.324;2023-07-29T03:06:31;5.57;;;3.22;;
34489;SDS011;20730;49.372;7.324;2023-07-29T03:08:57;3.35;;;3.05;;
34489;SDS011;20730;49.372;7.324;2023-07-29T03:11:24;4.45;;;3.20;;
34489;SDS011;20730;49.372;7.324;2023-07-29T03:13:51;3.60;;;3.30;;
34489;SDS011;20730;49.372;7.324;2023-07-29T03:16:17;4.65;;;3.78;;
34489;SDS011;20730;49.372;7.324;2023-07-29T03:18:51;4.85;;;3.35;;
34489;SDS011;20730;49.372;7.324;2023-07-29T03:21:17;7.78;;;3.80;;
34489;SDS011;20730;49.372;7.324;2023-07-29T03:23:44;7.38;;;3.75;;
34489;SDS011;20730;49.372;7.324;2023-07-29T03:26:11;5.20;;;4.00;;
34489;SDS011;20730;49.372;7.324;2023-07-29T03:28:41;5.30;;;3.70;;
34489;SDS011;20730;49.372;7.324;2023-07-29T03:31:09;8.20;;;3.80;;
34489;SDS011;20730;49.372;7.324;2023-07-29T03:33:36;5.55;;;3.92;;
34489;SDS011;20730;49.372;7.324;2023-07-29T03:36:03;6.95;;;3.38;;
34489;SDS011;20730;49.372;7.324;2023-07-29T03:38:30;7.05;;;3.30;;
34489;SDS011;20730;49.372;7.324;2023-07-29T03:40:59;4.35;;;3.78;;
34489;SDS011;20730;49.372;7.324;2023-07-29T03:43:26;6.47;;;3.80;;
34489;SDS011;20730;49.372;7.324;2023-07-29T03:45:55;6.85;;;3.78;;
34489;SDS011;20730;49.372;7.324;2023-07-29T03:48:22;5.35;;;3.85;;
34489;SDS011;20730;49.372;7.324;2023-07-29T03:50:48;9.23;;;4.00;;
34489;SDS011;20730;49.372;7.324;2023-07-29T03:53:15;6.03;;;4.13;;
34489;SDS011;20730;49.372;7.324;2023-07-29T03:55:43;5.03;;;4.57;;
34489;SDS011;20730;49.372;7.324;2023-07-29T03:58:10;9.20;;;5.20;;
34489;SDS011;20730;49.372;7.324;2023-07-29T04:00:37;8.80;;;5.03;;
34489;SDS011;20730;49.372;7.324;2023-07-29T04:03:06;8.38;;;5.40;;
34489;SDS011;20730;49.372;7.324;2023-07-29T04:05:33;10.30;;;5.20;;
34489;SDS011;20730;49.372;7.324;2023-07-29T04:08:00;7.10;;;5.00;;
34489;SDS011;20730;49.372;7.324;2023-07-29T04:10:26;9.68;;;5.00;;
34489;SDS011;20730;49.372;7.324;2023-07-29T04:12:53;7.35;;;4.65;;
34489;SDS011;20730;49.372;7.324;2023-07-29T04:15:20;5.35;;;4.57;;
34489;SDS011;20730;49.372;7.324;2023-07-29T04:17:47;6.75;;;5.15;;
34489;SDS011;20730;49.372;7.324;2023-07-29T04:20:14;9.23;;;5.15;;
34489;SDS011;20730;49.372;7.324;2023-07-29T04:22:40;9.48;;;4.95;;
34489;SDS011;20730;49.372;7.324;2023-07-29T04:25:07;8.27;;;5.10;;
34489;SDS011;20730;49.372;7.324;2023-07-29T04:27:34;6.97;;;5.05;;
34489;SDS011;20730;49.372;7.324;2023-07-29T04:30:01;7.40;;;5.50;;
34489;SDS011;20730;49.372;7.324;2023-07-29T04:32:28;8.32;;;5.88;;
34489;SDS011;20730;49.372;7.324;2023-07-29T04:34:54;6.82;;;5.22;;
34489;SDS011;20730;49.372;7.324;2023-07-29T04:37:21;9.95;;;5.45;;
34489;SDS011;20730;49.372;7.324;2023-07-29T04:39:48;9.18;;;5.50;;
34489;SDS011;20730;49.372;7.324;2023-07-29T04:42:14;7.53;;;5.80;;
34489;SDS011;20730;49.372;7.324;2023-07-29T04:44:41;6.80;;;5.80;;
34489;SDS011;20730;49.372;7.324;2023-07-29T04:47:08;6.53;;;5.93;;
34489;SDS011;20730;49.372;7.324;2023-07-29T04:49:35;7.03;;;5.68;;
34489;SDS011;20730;49.372;7.324;2023-07-29T04:52:02;6.28;;;5.68;;
34489;SDS011;20730;49.372;7.324;2023-07-29T04:54:29;6.40;;;5.72;;
34489;SDS011;20730;49.372;7.324;2023-07-29T04:56:56;7.97;;;5.57;;
34489;SDS011;20730;49.372;7.324;2023-07-29T04:59:22;8.25;;;6.20;;
34489;SDS011;20730;49.372;7.324;2023-07-29T05:01:50;9.23;;;6.13;;
34489;SDS011;20730;49.372;7.324;2023-07-29T05:04:20;8.43;;;6.05;;
34489;SDS011;20730;49.372;7.324;2023-07-29T05:06:47;8.32;;;5.85;;
34489;SDS011;20730;49.372;7.324;2023-07-29T05:09:14;8.55;;;6.35;;
34489;SDS011;20730;49.372;7.324;2023-07-29T05:11:42;6.95;;;5.60;;
34489;SDS011;20730;49.372;7.324;2023-07-29T05:14:12;15.52;;;5.93;;
34489;SDS011;20730;49.372;7.324;2023-07-29T05:16:41;8.85;;;5.40;;
34489;SDS011;20730;49.372;7.324;2023-07-29T05:19:08;7.45;;;5.70;;
34489;SDS011;20730;49.372;7.324;2023-07-29T05:21:34;7.15;;;6.55;;
34489;SDS011;20730;49.372;7.324;2023-07-29T05:24:01;9.05;;;6.97;;
34489;SDS011;20730;49.372;7.324;2023-07-29T05:26:28;8.48;;;7.68;;
34489;SDS011;20730;49.372;7.324;2023-07-29T05:28:55;10.32;;;8.55;;
34489;SDS011;20730;49.372;7.324;2023-07-29T05:31:22;8.88;;;8.07;;
34489;SDS011;20730;49.372;7.324;2023-07-29T05:33:48;8.50;;;7.43;;
34489;SDS011;20730;49.372;7.324;2023-07-29T05:36:15;8.52;;;6.90;;
34489;SDS011;20730;49.372;7.324;2023-07-29T05:38:42;8.65;;;7.07;;
34489;SDS011;20730;49.372;7.324;2023-07-29T05:41:09;9.35;;;6.45;;
34489;SDS011;20730;49.372;7.324;2023-07-29T05:43:36;6.45;;;5.88;;
34489;SDS011;20730;49.372;7.324;2023-07-29T05:46:03;8.50;;;5.82;;
34489;SDS011;20730;49.372;7.324;2023-07-29T05:48:30;7.32;;;5.18;;
34489;SDS011;20730;49.372;7.324;2023-07-29T05:50:57;5.32;;;4.82;;
34489;SDS011;20730;49.372;7.324;2023-07-29T05:53:24;5.60;;;4.85;;
34489;SDS011;20730;49.372;7.324;2023-07-29T05:55:50;4.88;;;4.47;;
34489;SDS011;20730;49.372;7.324;2023-07-29T05:58:18;6.32;;;4.30;;
34489;SDS011;20730;49.372;7.324;2023-07-29T06:00:46;4.93;;;4.10;;
34489;SDS011;20730;49.372;7.324;2023-07-29T06:03:13;5.15;;;4.13;;
34489;SDS011;20730;49.372;7.324;2023-07-29T06:05:40;5.75;;;4.10;;
34489;SDS011;20730;49.372;7.324;2023-07-29T06:08:07;3.65;;;3.30;;
34489;SDS011;20730;49.372;7.324;2023-07-29T06:10:35;2.90;;;2.63;;
34489;SDS011;20730;49.372;7.324;2023-07-29T06:13:02;4.78;;;2.08;;
34489;SDS011;20730;49.372;7.324;2023-07-29T06:15:28;13.48;;;2.60;;
34489;SDS011;20730;49.372;7.324;2023-07-29T06:17:55;11.20;;;1.50;;
34489;SDS011;20730;49.372;7.324;2023-07-29T06:20:23;8.75;;;0.93;;
34489;SDS011;20730;49.372;7.324;2023-07-29T06:22:50;9.20;;;0.95;;
34489;SDS011;20730;49.372;7.324;2023-07-29T06:25:17;28.38;;;2.53;;
34489;SDS011;20730;49.372;7.324;2023-07-29T06:27:43;17.23;;;1.58;;
34489;SDS011;20730;49.372;7.324;2023-07-29T06:30:10;6.57;;;1.50;;
34489;SDS011;20730;49.372;7.324;2023-07-29T06:32:37;7.22;;;1.75;;
34489;SDS011;20730;49.372;7.324;2023-07-29T06:35:04;7.15;;;1.23;;
34489;SDS011;20730;49.372;7.324;2023-07-29T06:37:31;8.13;;;1.10;;
34489;SDS011;20730;49.372;7.324;2023-07-29T06:39:59;4.50;;;1.20;;
34489;SDS011;20730;49.372;7.324;2023-07-29T06:42:26;8.23;;;0.90;;
34489;SDS011;20730;49.372;7.324;2023-07-29T06:44:53;6.82;;;1.00;;
34489;SDS011;20730;49.372;7.324;2023-07-29T06:47:20;4.90;;;1.13;;
34489;SDS011;20730;49.372;7.324;2023-07-29T06:49:46;6.38;;;1.10;;
34489;SDS011;20730;49.372;7.324;2023-07-29T06:52:13;6.57;;;1.00;;
34489;SDS011;20730;49.372;7.324;2023-07-29T06:54:40;5.03;;;1.10;;
34489;SDS011;20730;49.372;7.324;2023-07-29T06:57:07;2.17;;;1.00;;
34489;SDS011;20730;49.372;7.324;2023-07-29T06:59:34;3.80;;;1.20;;
34489;SDS011;20730;49.372;7.324;2023-07-29T07:02:01;8.68;;;1.35;;
34489;SDS011;20730;49.372;7.324;2023-07-29T07:04:28;5.40;;;1.02;;
34489;SDS011;20730;49.372;7.324;2023-07-29T07:06:55;2.55;;;0.95;;
34489;SDS011;20730;49.372;7.324;2023-07-29T07:09:22;4.22;;;1.17;;
34489;SDS011;20730;49.372;7.324;2023-07-29T07:11:49;3.88;;;1.30;;
34489;SDS011;20730;49.372;7.324;2023-07-29T07:14:16;5.05;;;1.30;;
34489;SDS011;20730;49.372;7.324;2023-07-29T07:16:42;3.63;;;1.25;;
34489;SDS011;20730;49.372;7.324;2023-07-29T07:19:09;2.60;;;1.10;;
34489;SDS011;20730;49.372;7.324;2023-07-29T07:21:37;6.88;;;1.10;;
34489;SDS011;20730;49.372;7.324;2023-07-29T07:24:03;5.05;;;1.25;;
34489;SDS011;20730;49.372;7.324;2023-07-29T07:26:30;3.40;;;1.00;;
34489;SDS011;20730;49.372;7.324;2023-07-29T07:28:57;4.75;;;1.10;;
34489;SDS011;20730;49.372;7.324;2023-07-29T07:31:24;3.58;;;0.88;;
34489;SDS011;20730;49.372;7.324;2023-07-29T07:33:51;3.85;;;1.30;;
34489;SDS011;20730;49.372;7.324;2023-07-29T07:36:17;4.50;;;1.10;;
34489;SDS011;20730;49.372;7.324;2023-07-29T07:38:44;3.67;;;0.90;;
34489;SDS011;20730;49.372;7.324;2023-07-29T07:41:12;1.85;;;1.00;;
34489;SDS011;20730;49.372;7.324;2023-07-29T07:43:38;1.95;;;1.20;;
34489;SDS011;20730;49.372;7.324;2023-07-29T07:46:05;1.75;;;1.02;;
34489;SDS011;20730;49.372;7.324;2023-07-29T07:48:32;1.77;;;1.08;;
34489;SDS011;20730;49.372;7.324;2023-07-29T07:50:59;7.38;;;1.48;;
34489;SDS011;20730;49.372;7.324;2023-07-29T07:53:26;2.28;;;0.90;;
34489;SDS011;20730;49.372;7.324;2023-07-29T07:55:53;2.28;;;1.10;;
34489;SDS011;20730;49.372;7.324;2023-07-29T07:58:19;2.58;;;1.20;;
34489;SDS011;20730;49.372;7.324;2023-07-29T08:00:46;2.05;;;1.20;;
34489;SDS011;20730;49.372;7.324;2023-07-29T08:03:13;2.25;;;1.20;;
34489;SDS011;20730;49.372;7.324;2023-07-29T08:05:40;2.65;;;1.00;;
34489;SDS011;20730;49.372;7.324;2023-07-29T08:08:07;2.50;;;1.17;;
34489;SDS011;20730;49.372;7.324;2023-07-29T08:10:33;2.88;;;1.50;;
34489;SDS011;20730;49.372;7.324;2023-07-29T08:13:00;2.47;;;1.30;;
34489;SDS011;20730;49.372;7.324;2023-07-29T08:15:27;2.72;;;1.30;;
34489;SDS011;20730;49.372;7.324;2023-07-29T08:17:53;3.97;;;1.30;;
34489;SDS011;20730;49.372;7.324;2023-07-29T08:20:20;2.78;;;1.67;;
34489;SDS011;20730;49.372;7.324;2023-07-29T08:22:47;2.78;;;1.60;;
34489;SDS011;20730;49.372;7.324;2023-07-29T08:25:15;7.07;;;1.60;;
34489;SDS011;20730;49.372;7.324;2023-07-29T08:27:42;1.75;;;1.45;;
34489;SDS011;20730;49.372;7.324;2023-07-29T08:30:11;1.73;;;1.53;;
34489;SDS011;20730;49.372;7.324;2023-07-29T08:32:39;3.85;;;1.70;;
34489;SDS011;20730;49.372;7.324;2023-07-29T08:35:06;3.00;;;1.60;;
34489;SDS011;20730;49.372;7.324;2023-07-29T08:37:32;2.95;;;1.60;;
34489;SDS011;20730;49.372;7.324;2023-07-29T08:39:59;4.85;;;1.70;;
34489;SDS011;20730;49.372;7.324;2023-07-29T08:42:28;1.80;;;1.70;;
34489;SDS011;20730;49.372;7.324;2023-07-29T08:44:55;2.03;;;1.85;;
34489;SDS011;20730;49.372;7.324;2023-07-29T08:47:22;3.88;;;1.73;;
34489;SDS011;20730;49.372;7.324;2023-07-29T08:49:50;2.63;;;1.60;;
34489;SDS011;20730;49.372;7.324;2023-07-29T08:52:17;2.20;;;1.75;;
34489;SDS011;20730;49.372;7.324;2023-07-29T08:54:44;2.53;;;1.50;;
34489;SDS011;20730;49.372;7.324;2023-07-29T08:57:11;5.32;;;1.70;;
34489;SDS011;20730;49.372;7.324;2023-07-29T08:59:38;2.00;;;1.60;;
34489;SDS011;20730;49.372;7.324;2023-07-29T09:02:05;2.95;;;1.70;;
34489;SDS011;20730;49.372;7.324;2023-07-29T09:04:32;3.80;;;1.60;;
34489;SDS011;20730;49.372;7.324;2023-07-29T09:06:59;2.72;;;1.60;;
34489;SDS011;20730;49.372;7.324;2023-07-29T09:09:25;2.92;;;1.48;;
34489;SDS011;20730;49.372;7.324;2023-07-29T09:11:52;2.47;;;1.50;;
34489;SDS011;20730;49.372;7.324;2023-07-29T09:14:20;1.50;;;1.40;;
34489;SDS011;20730;49.372;7.324;2023-07-29T09:16:47;3.55;;;1.48;;
34489;SDS011;20730;49.372;7.324;2023-07-29T09:19:13;2.90;;;1.58;;
34489;SDS011;20730;49.372;7.324;2023-07-29T09:21:40;4.60;;;1.70;;
34489;SDS011;20730;49.372;7.324;2023-07-29T09:24:07;5.20;;;1.52;;
34489;SDS011;20730;49.372;7.324;2023-07-29T09:26:35;1.55;;;1.45;;
34489;SDS011;20730;49.372;7.324;2023-07-29T09:29:02;2.50;;;1.40;;
34489;SDS011;20730;49.372;7.324;2023-07-29T09:31:29;2.30;;;1.63;;
34489;SDS011;20730;49.372;7.324;2023-07-29T09:34:00;2.42;;;1.63;;
34489;SDS011;20730;49.372;7.324;2023-07-29T09:36:32;2.88;;;1.48;;
34489;SDS011;20730;49.372;7.324;2023-07-29T09:39:00;2.63;;;1.58;;
34489;SDS011;20730;49.372;7.324;2023-07-29T09:41:28;3.00;;;1.63;;
34489;SDS011;20730;49.372;7.324;2023-07-29T09:43:57;3.17;;;1.38;;
34489;SDS011;20730;49.372;7.324;2023-07-29T09:46:24;3.75;;;1.40;;
34489;SDS011;20730;49.372;7.324;2023-07-29T09:48:53;2.75;;;1.58;;
34489;SDS011;20730;49.372;7.324;2023-07-29T09:51:23;4.03;;;1.30;;
34489;SDS011;20730;49.372;7.324;2023-07-29T09:53:51;4.55;;;1.65;;
34489;SDS011;20730;49.372;7.324;2023-07-29T09:56:24;1.35;;;1.20;;
34489;SDS011;20730;49.372;7.324;2023-07-29T09:58:52;3.67;;;1.27;;
34489;SDS011;20730;49.372;7.324;2023-07-29T10:01:19;4.75;;;1.50;;
34489;SDS011;20730;49.372;7.324;2023-07-29T10:03:45;2.15;;;1.48;;
34489;SDS011;20730;49.372;7.324;2023-07-29T10:06:14;2.63;;;1.67;;
34489;SDS011;20730;49.372;7.324;2023-07-29T10:08:41;1.38;;;1.27;;
34489;SDS011;20730;49.372;7.324;2023-07-29T10:11:09;5.32;;;1.38;;
34489;SDS011;20730;49.372;7.324;2023-07-29T10:13:37;2.22;;;1.20;;
34489;SDS011;20730;49.372;7.324;2023-07-29T10:16:04;3.22;;;1.48;;
34489;SDS011;20730;49.372;7.324;2023-07-29T10:18:33;2.55;;;1.60;;
34489;SDS011;20730;49.372;7.324;2023-07-29T10:21:00;5.70;;;1.10;;
34489;SDS011;20730;49.372;7.324;2023-07-29T10:23:28;4.60;;;1.30;;
34489;SDS011;20730;49.372;7.324;2023-07-29T10:26:02;3.20;;;1.50;;
34489;SDS011;20730;49.372;7.324;2023-07-29T10:28:31;1.80;;;1.30;;
34489;SDS011;20730;49.372;7.324;2023-07-29T10:30:59;3.25;;;1.35;;
34489;SDS011;20730;49.372;7.324;2023-07-29T10:33:26;2.65;;;1.30;;
34489;SDS011;20730;49.372;7.324;2023-07-29T10:35:53;2.67;;;1.10;;
34489;SDS011;20730;49.372;7.324;2023-07-29T10:38:23;2.33;;;1.30;;
34489;SDS011;20730;49.372;7.324;2023-07-29T10:40:51;1.42;;;1.30;;
34489;SDS011;20730;49.372;7.324;2023-07-29T10:43:27;2.42;;;1.13;;
34489;SDS011;20730;49.372;7.324;2023-07-29T10:46:20;1.20;;;1.10;;
34489;SDS011;20730;49.372;7.324;2023-07-29T10:48:52;2.30;;;1.13;;
34489;SDS011;20730;49.372;7.324;2023-07-29T10:51:23;2.25;;;1.10;;
34489;SDS011;20730;49.372;7.324;2023-07-29T10:54:03;2.03;;;0.90;;
34489;SDS011;20730;49.372;7.324;2023-07-29T10:56:46;1.80;;;1.10;;
34489;SDS011;20730;49.372;7.324;2023-07-29T11:02:11;1.50;;;1.08;;
34489;SDS011;20730;49.372;7.324;2023-07-29T11:04:48;1.00;;;0.90;;
34489;SDS011;20730;49.372;7.324;2023-07-29T11:15:14;1.00;;;1.00;;
34489;SDS011;20730;49.372;7.324;2023-07-29T11:17:41;1.50;;;1.10;;
34489;SDS011;20730;49.372;7.324;2023-07-29T11:20:11;1.60;;;1.08;;
34489;SDS011;20730;49.372;7.324;2023-07-29T11:22:39;1.67;;;1.10;;
34489;SDS011;20730;49.372;7.324;2023-07-29T11:25:10;1.40;;;1.05;;
34489;SDS011;20730;49.372;7.324;2023-07-29T11:27:38;2.05;;;0.88;;
34489;SDS011;20730;49.372;7.324;2023-07-29T11:30:06;0.95;;;0.80;;
34489;SDS011;20730;49.372;7.324;2023-07-29T11:32:35;1.15;;;0.98;;
34489;SDS011;20730;49.372;7.324;2023-07-29T11:35:05;1.10;;;1.00;;
34489;SDS011;20730;49.372;7.324;2023-07-29T11:37:39;1.13;;;0.93;;
34489;SDS011;20730;49.372;7.324;2023-07-29T11:40:06;1.95;;;1.00;;
34489;SDS011;20730;49.372;7.324;2023-07-29T11:42:34;3.20;;;1.10;;
34489;SDS011;20730;49.372;7.324;2023-07-29T11:45:02;2.40;;;0.95;;
34489;SDS011;20730;49.372;7.324;2023-07-29T11:47:31;1.85;;;0.82;;
34489;SDS011;20730;49.372;7.324;2023-07-29T11:49:58;1.40;;;1.00;;
34489;SDS011;20730;49.372;7.324;2023-07-29T11:52:27;1.10;;;1.10;;
34489;SDS011;20730;49.372;7.324;2023-07-29T11:54:54;1.63;;;1.00;;
34489;SDS011;20730;49.372;7.324;2023-07-29T11:57:20;2.05;;;1.33;;
34489;SDS011;20730;49.372;7.324;2023-07-29T11:59:47;1.15;;;1.00;;
34489;SDS011;20730;49.372;7.324;2023-07-29T12:02:15;2.05;;;0.98;;
34489;SDS011;20730;49.372;7.324;2023-07-29T12:04:43;1.10;;;1.00;;
34489;SDS011;20730;49.372;7.324;2023-07-29T12:07:10;2.60;;;1.20;;
34489;SDS011;20730;49.372;7.324;2023-07-29T12:09:37;3.22;;;1.30;;
34489;SDS011;20730;49.372;7.324;2023-07-29T12:12:04;3.08;;;1.20;;
34489;SDS011;20730;49.372;7.324;2023-07-29T12:14:31;1.63;;;1.10;;
34489;SDS011;20730;49.372;7.324;2023-07-29T12:16:59;1.48;;;1.30;;
34489;SDS011;20730;49.372;7.324;2023-07-29T12:19:37;2.80;;;1.20;;
34489;SDS011;20730;49.372;7.324;2023-07-29T12:22:05;2.83;;;1.30;;
34489;SDS011;20730;49.372;7.324;2023-07-29T12:24:34;1.50;;;1.10;;
34489;SDS011;20730;49.372;7.324;2023-07-29T12:27:03;1.20;;;1.10;;
34489;SDS011;20730;49.372;7.324;2023-07-29T12:29:30;1.92;;;1.30;;
34489;SDS011;20730;49.372;7.324;2023-07-29T12:31:58;3.17;;;1.30;;
34489;SDS011;20730;49.372;7.324;2023-07-29T12:34:26;4.00;;;1.35;;
34489;SDS011;20730;49.372;7.324;2023-07-29T12:36:58;1.52;;;1.10;;
34489;SDS011;20730;49.372;7.324;2023-07-29T12:39:26;2.03;;;1.27;;
34489;SDS011;20730;49.372;7.324;2023-07-29T12:41:54;1.25;;;1.15;;
34489;SDS011;20730;49.372;7.324;2023-07-29T12:44:22;1.63;;;1.20;;
34489;SDS011;20730;49.372;7.324;2023-07-29T12:46:49;3.72;;;1.25;;
34489;SDS011;20730;49.372;7.324;2023-07-29T12:49:16;1.67;;;1.08;;
34489;SDS011;20730;49.372;7.324;2023-07-29T12:51:43;1.20;;;1.10;;
34489;SDS011;20730;49.372;7.324;2023-07-29T12:54:10;2.13;;;1.15;;
34489;SDS011;20730;49.372;7.324;2023-07-29T12:56:37;1.92;;;1.40;;
34489;SDS011;20730;49.372;7.324;2023-07-29T12:59:05;1.27;;;1.00;;
34489;SDS011;20730;49.372;7.324;2023-07-29T13:01:32;2.50;;;1.20;;
34489;SDS011;20730;49.372;7.324;2023-07-29T13:03:58;1.85;;;1.20;;
34489;SDS011;20730;49.372;7.324;2023-07-29T13:06:25;1.52;;;1.40;;
34489;SDS011;20730;49.372;7.324;2023-07-29T13:08:52;1.20;;;1.10;;
34489;SDS011;20730;49.372;7.324;2023-07-29T13:11:18;1.48;;;1.38;;
34489;SDS011;20730;49.372;7.324;2023-07-29T13:13:46;1.25;;;1.15;;
34489;SDS011;20730;49.372;7.324;2023-07-29T13:16:13;3.92;;;1.27;;
34489;SDS011;20730;49.372;7.324;2023-07-29T13:18:40;3.05;;;1.27;;
34489;SDS011;20730;49.372;7.324;2023-07-29T13:21:07;6.30;;;1.45;;
34489;SDS011;20730;49.372;7.324;2023-07-29T13:23:34;2.15;;;1.58;;
34489;SDS011;20730;49.372;7.324;2023-07-29T13:26:00;1.63;;;1.27;;
34489;SDS011;20730;49.372;7.324;2023-07-29T13:28:27;1.67;;;1.30;;
34489;SDS011;20730;49.372;7.324;2023-07-29T13:30:54;1.67;;;1.13;;
34489;SDS011;20730;49.372;7.324;2023-07-29T13:33:21;1.40;;;1.30;;
34489;SDS011;20730;49.372;7.324;2023-07-29T13:35:47;2.03;;;1.40;;
34489;SDS011;20730;49.372;7.324;2023-07-29T13:38:14;1.65;;;1.50;;
34489;SDS011;20730;49.372;7.324;2023-07-29T13:40:41;3.38;;;1.52;;
34489;SDS011;20730;49.372;7.324;2023-07-29T13:43:07;2.47;;;1.38;;
34489;SDS011;20730;49.372;7.324;2023-07-29T13:45:34;4.28;;;1.52;;
34489;SDS011;20730;49.372;7.324;2023-07-29T13:48:01;4.05;;;1.30;;
34489;SDS011;20730;49.372;7.324;2023-07-29T13:50:28;1.48;;;1.38;;
34489;SDS011;20730;49.372;7.324;2023-07-29T13:52:55;2.78;;;1.30;;
34489;SDS011;20730;49.372;7.324;2023-07-29T13:55:21;1.60;;;1.50;;
34489;SDS011;20730;49.372;7.324;2023-07-29T13:57:48;2.03;;;1.40;;
34489;SDS011;20730;49.372;7.324;2023-07-29T14:00:15;2.00;;;1.52;;
34489;SDS011;20730;49.372;7.324;2023-07-29T14:02:41;3.88;;;1.40;;
34489;SDS011;20730;49.372;7.324;2023-07-29T14:05:09;7.57;;;1.50;;
34489;SDS011;20730;49.372;7.324;2023-07-29T14:07:38;2.78;;;1.60;;
34489;SDS011;20730;49.372;7.324;2023-07-29T14:10:04;1.30;;;1.20;;
34489;SDS011;20730;49.372;7.324;2023-07-29T14:12:31;3.30;;;1.40;;
34489;SDS011;20730;49.372;7.324;2023-07-29T14:14:58;2.15;;;1.88;;
34489;SDS011;20730;49.372;7.324;2023-07-29T14:17:25;1.63;;;1.50;;
34489;SDS011;20730;49.372;7.324;2023-07-29T14:19:51;3.88;;;1.70;;
34489;SDS011;20730;49.372;7.324;2023-07-29T14:22:18;1.58;;;1.42;;
34489;SDS011;20730;49.372;7.324;2023-07-29T14:24:45;3.05;;;1.30;;
34489;SDS011;20730;49.372;7.324;2023-07-29T14:27:11;2.97;;;1.52;;
34489;SDS011;20730;49.372;7.324;2023-07-29T14:29:38;1.90;;;1.55;;
34489;SDS011;20730;49.372;7.324;2023-07-29T14:32:05;2.95;;;1.60;;
34489;SDS011;20730;49.372;7.324;2023-07-29T14:34:32;2.70;;;1.73;;
34489;SDS011;20730;49.372;7.324;2023-07-29T14:36:58;2.78;;;1.60;;
34489;SDS011;20730;49.372;7.324;2023-07-29T14:39:25;1.95;;;1.38;;
34489;SDS011;20730;49.372;7.324;2023-07-29T14:41:52;1.60;;;1.50;;
34489;SDS011;20730;49.372;7.324;2023-07-29T14:44:19;1.85;;;1.60;;
34489;SDS011;20730;49.372;7.324;2023-07-29T14:46:46;3.42;;;1.60;;
34489;SDS011;20730;49.372;7.324;2023-07-29T14:49:12;2.30;;;1.58;;
34489;SDS011;20730;49.372;7.324;2023-07-29T14:51:39;2.08;;;1.52;;
34489;SDS011;20730;49.372;7.324;2023-07-29T14:54:06;3.28;;;1.70;;
34489;SDS011;20730;49.372;7.324;2023-07-29T14:56:32;1.80;;;1.50;;
34489;SDS011;20730;49.372;7.324;2023-07-29T14:59:00;2.08;;;1.75;;
34489;SDS011;20730;49.372;7.324;2023-07-29T15:01:26;3.50;;;1.80;;
34489;SDS011;20730;49.372;7.324;2023-07-29T15:03:53;2.75;;;1.40;;
34489;SDS011;20730;49.372;7.324;2023-07-29T15:06:20;1.55;;;1.45;;